createdAt,value
2022-10-10T00:01:05.856Z,101189.63
2022-10-10T00:04:09.741Z,101185.22
2022-10-10T00:07:12.228Z,101179.91
2022-10-10T00:10:14.693Z,101179.31
2022-10-10T00:13:17.239Z,101186.47
2022-10-10T00:16:20.295Z,101174.72
2022-10-10T00:19:24.089Z,101176.25
2022-10-10T00:22:26.628Z,101176.25
2022-10-10T00:25:29.159Z,101169.03
2022-10-10T00:28:31.810Z,101169.06
2022-10-10T00:31:34.294Z,101157.09
2022-10-10T00:34:38.072Z,101154.31
2022-10-10T00:37:40.520Z,101149.22
2022-10-10T00:40:47.589Z,101152.84
2022-10-10T00:44:07.667Z,101146.22
2022-10-10T00:47:10.570Z,101140.81
2022-10-10T00:50:14.445Z,101143.97
2022-10-10T00:53:20.672Z,101134.44
2022-10-10T00:56:26.990Z,101135.03
2022-10-10T00:59:35.129Z,101124.66
2022-10-10T01:02:37.817Z,101113.63
2022-10-10T01:05:42.910Z,101126.19
2022-10-10T01:08:45.515Z,101119.97
2022-10-10T01:11:56.097Z,101117.94
2022-10-10T01:15:06.300Z,101114.78
2022-10-10T01:18:18.636Z,101109.84
2022-10-10T01:21:32.826Z,101103.38
2022-10-10T01:24:58.825Z,101104.91
2022-10-10T01:28:04.088Z,101101.00
2022-10-10T01:31:10.791Z,101095.47
2022-10-10T01:34:22.938Z,101100.06
2022-10-10T01:37:35.601Z,101093.19
2022-10-10T01:40:45.260Z,101081.88
2022-10-10T01:43:47.721Z,101076.66
2022-10-10T01:46:51.502Z,101072.09
2022-10-10T01:49:59.259Z,101078.34
2022-10-10T01:53:09.948Z,101076.19
2022-10-10T01:56:24.576Z,101059.94
2022-10-10T01:59:40.344Z,101069.06
2022-10-10T02:02:52.159Z,101061.34
2022-10-10T02:05:57.683Z,101053.88
2022-10-10T02:09:06.366Z,101053.47
2022-10-10T02:12:11.950Z,101051.75
2022-10-10T02:15:17.738Z,101063.25
2022-10-10T02:18:28.242Z,101045.34
2022-10-10T02:21:31.705Z,101040.13
2022-10-10T02:24:34.203Z,101031.84
2022-10-10T02:27:44.071Z,101033.00
2022-10-10T02:30:50.154Z,101028.06
2022-10-10T02:33:59.401Z,101026.41
2022-10-10T02:37:04.864Z,101029.91
2022-10-10T02:40:09.906Z,101008.63
2022-10-10T02:43:14.856Z,101005.63
2022-10-10T02:46:18.123Z,101007.88
2022-10-10T02:49:26.804Z,101005.31
2022-10-10T02:52:29.313Z,101004.22
2022-10-10T02:55:31.827Z,100995.19
2022-10-10T02:58:34.348Z,101000.25
2022-10-10T03:01:36.826Z,101001.28
2022-10-10T03:04:42.059Z,100993.31
2022-10-10T03:07:44.520Z,100994.19
2022-10-10T03:10:55.262Z,100990.97
2022-10-10T03:13:57.703Z,100986.28
2022-10-10T03:17:00.581Z,100983.88
2022-10-10T03:20:05.425Z,100978.09
2022-10-10T03:23:07.880Z,100979.75
2022-10-10T03:26:10.557Z,100980.81
2022-10-10T03:29:13.111Z,100974.88
2022-10-10T03:32:15.580Z,100974.88
2022-10-10T03:35:19.412Z,100960.06
2022-10-10T03:38:21.859Z,100965.34
2022-10-10T03:41:24.335Z,100958.38
2022-10-10T03:44:26.790Z,100963.16
2022-10-10T03:47:29.247Z,100955.72
2022-10-10T03:50:33.062Z,100949.91
2022-10-10T03:53:35.510Z,100946.13
2022-10-10T03:56:37.984Z,100952.78
2022-10-10T03:59:40.453Z,100938.69
2022-10-10T04:02:42.963Z,100935.94
2022-10-10T04:05:46.746Z,100938.53
2022-10-10T04:08:49.338Z,100926.69
2022-10-10T04:11:51.799Z,100932.31
2022-10-10T04:14:54.262Z,100920.38
2022-10-10T04:17:56.733Z,100921.97
2022-10-10T04:21:02.826Z,100916.56
2022-10-10T04:24:05.630Z,100916.34
2022-10-10T04:27:08.093Z,100911.06
2022-10-10T04:30:12.099Z,100901.41
2022-10-10T04:33:14.573Z,100899.47
2022-10-10T04:36:18.411Z,100892.50
2022-10-10T04:39:21.045Z,100884.88
2022-10-10T04:42:23.660Z,100891.53
2022-10-10T04:45:26.657Z,100882.78
2022-10-10T04:48:29.186Z,100875.00
2022-10-10T04:51:32.987Z,100874.50
2022-10-10T04:54:35.491Z,100867.69
2022-10-10T04:57:37.968Z,100863.34
2022-10-10T05:00:41.079Z,100863.44
2022-10-10T05:03:43.969Z,100860.50
2022-10-10T05:06:47.756Z,100861.94
2022-10-10T05:09:50.456Z,100855.09
2022-10-10T05:12:53.326Z,100855.88
2022-10-10T05:15:56.103Z,100854.94
2022-10-10T05:18:58.722Z,100846.28
2022-10-10T05:22:02.567Z,100845.91
2022-10-10T05:25:05.673Z,100834.84
2022-10-10T05:28:08.203Z,100825.47
2022-10-10T05:31:10.868Z,100822.53
2022-10-10T05:34:14.403Z,100815.50
2022-10-10T05:37:18.285Z,100811.38
2022-10-10T05:40:20.799Z,100803.06
2022-10-10T05:43:23.294Z,100810.09
2022-10-10T05:46:27.446Z,100807.16
2022-10-10T05:49:29.931Z,100803.69
2022-10-10T05:52:35.225Z,100799.34
2022-10-10T05:55:37.771Z,100803.88
2022-10-10T05:58:40.234Z,100811.09
2022-10-10T06:01:42.738Z,100804.44
2022-10-10T06:04:45.323Z,100805.44
2022-10-10T06:08:09.259Z,100805.56
2022-10-10T06:11:12.144Z,100802.34
2022-10-10T06:14:14.686Z,100804.94
2022-10-10T06:17:17.393Z,100800.81
2022-10-10T06:20:19.915Z,100807.13
2022-10-10T06:23:23.762Z,100801.53
2022-10-10T06:26:26.265Z,100789.00
2022-10-10T06:29:29.019Z,100786.22
2022-10-10T06:32:31.489Z,100784.47
2022-10-10T06:35:34.092Z,100788.00
2022-10-10T06:38:39.808Z,100798.56
2022-10-10T06:41:42.260Z,100785.81
2022-10-10T06:44:44.779Z,100773.25
2022-10-10T06:47:47.233Z,100780.13
2022-10-10T06:51:00.236Z,100778.50
2022-10-10T06:54:04.085Z,100770.22
2022-10-10T06:57:06.544Z,100785.97
2022-10-10T07:00:09.719Z,100784.31
2022-10-10T07:03:13.657Z,100784.78
2022-10-10T07:06:18.001Z,100799.81
2022-10-10T07:09:21.816Z,100798.56
2022-10-10T07:12:24.272Z,100789.81
2022-10-10T07:15:26.728Z,100793.03
2022-10-10T07:18:29.662Z,100791.50
2022-10-10T07:21:32.261Z,100789.69
2022-10-10T07:24:37.000Z,100786.31
2022-10-10T07:27:39.476Z,100790.28
2022-10-10T07:30:43.814Z,100783.56
2022-10-10T07:33:50.585Z,100775.59
2022-10-10T07:36:53.571Z,100770.34
2022-10-10T07:39:57.402Z,100765.91
2022-10-10T07:43:00.376Z,100763.56
2022-10-10T07:46:04.152Z,100760.50
2022-10-10T07:49:08.615Z,100765.63
2022-10-10T07:52:11.054Z,100762.38
2022-10-10T07:55:14.860Z,100762.81
2022-10-10T07:58:17.767Z,100764.38
2022-10-10T08:01:20.482Z,100760.50
2022-10-10T08:04:23.067Z,100760.34
2022-10-10T08:07:25.681Z,100747.97
2022-10-10T08:10:29.541Z,100753.44
2022-10-10T08:13:32.041Z,100746.28
2022-10-10T08:16:34.508Z,100741.88
2022-10-10T08:19:37.064Z,100737.19
2022-10-10T08:22:39.515Z,100734.75
2022-10-10T08:25:43.309Z,100724.09
2022-10-10T08:28:45.982Z,100731.75
2022-10-10T08:31:48.512Z,100717.69
2022-10-10T08:34:50.980Z,100726.16
2022-10-10T08:37:53.832Z,100734.44
2022-10-10T08:40:58.628Z,100733.50
2022-10-10T08:44:04.524Z,100729.28
2022-10-10T08:47:13.181Z,100729.72
2022-10-10T08:50:19.742Z,100728.38
2022-10-10T08:53:25.329Z,100726.78
2022-10-10T08:56:32.234Z,100722.09
2022-10-10T08:59:36.628Z,100716.28
2022-10-10T09:02:57.771Z,100716.44
2022-10-10T09:06:20.291Z,100714.28
2022-10-10T09:09:31.003Z,100717.06
2022-10-10T09:12:44.731Z,100709.91
2022-10-10T09:15:55.309Z,100705.06
2022-10-10T09:19:07.896Z,100695.91
2022-10-10T09:22:15.546Z,100691.31
2022-10-10T09:25:23.274Z,100687.16
2022-10-10T09:28:38.815Z,100681.97
2022-10-10T09:31:45.315Z,100688.84
2022-10-10T09:34:52.452Z,100681.81
2022-10-10T09:38:02.813Z,100682.31
2022-10-10T09:41:12.464Z,100677.22
2022-10-10T09:44:18.780Z,100664.34
2022-10-10T09:47:22.187Z,100661.03
2022-10-10T09:50:25.768Z,100666.44
2022-10-10T09:53:28.264Z,100669.84
2022-10-10T09:56:33.985Z,100654.94
2022-10-10T09:59:40.655Z,100656.47
2022-10-10T10:02:43.212Z,100654.28
2022-10-10T10:05:49.957Z,100637.38
2022-10-10T10:08:54.041Z,100644.19
2022-10-10T10:11:59.312Z,100649.88
2022-10-10T10:15:06.135Z,100650.25
2022-10-10T10:18:13.051Z,100648.34
2022-10-10T10:21:19.686Z,100660.34
2022-10-10T10:24:24.437Z,100660.22
2022-10-10T10:27:29.468Z,100667.91
2022-10-10T10:30:35.039Z,100662.53
2022-10-10T10:33:47.268Z,100663.56
2022-10-10T10:36:57.689Z,100663.13
2022-10-10T10:40:23.741Z,100659.97
2022-10-10T10:43:41.580Z,100658.06
2022-10-10T10:46:56.394Z,100650.06
2022-10-10T10:50:17.625Z,100635.69
2022-10-10T10:53:29.680Z,100643.09
2022-10-10T10:56:37.003Z,100636.22
2022-10-10T11:00:17.002Z,100634.59
2022-10-10T11:05:17.384Z,100634.00
2022-10-10T11:07:20.461Z,100624.31
2022-10-10T11:10:31.456Z,100612.63
2022-10-10T11:13:40.671Z,100614.38
2022-10-10T11:16:49.199Z,100615.97
2022-10-10T11:19:59.100Z,100616.81
2022-10-10T11:23:09.040Z,100607.88
2022-10-10T11:26:19.210Z,100617.78
2022-10-10T11:29:25.542Z,100599.03
2022-10-10T11:32:33.364Z,100593.56
2022-10-10T11:35:41.679Z,100583.13
2022-10-10T11:38:50.360Z,100584.53
2022-10-10T11:41:57.259Z,100571.03
2022-10-10T11:45:05.289Z,100572.09
2022-10-10T11:48:20.645Z,100577.50
2022-10-10T11:51:34.188Z,100576.16
2022-10-10T11:54:43.849Z,100579.34
2022-10-10T11:57:51.038Z,100578.31
2022-10-10T12:00:57.871Z,100576.41
2022-10-10T12:04:00.360Z,100571.66
2022-10-10T12:07:07.032Z,100568.47
2022-10-10T12:10:20.828Z,100558.44
2022-10-10T12:13:31.080Z,100559.31
2022-10-10T12:16:37.310Z,100554.78
2022-10-10T12:19:39.860Z,100558.81
2022-10-10T12:22:44.823Z,100555.34
2022-10-10T12:25:47.975Z,100554.75
2022-10-10T12:29:04.985Z,100547.66
2022-10-10T12:32:28.140Z,100550.13
2022-10-10T12:35:36.828Z,100553.50
2022-10-10T12:38:42.515Z,100548.75
2022-10-10T12:41:59.941Z,100545.38
2022-10-10T12:45:02.914Z,100532.78
2022-10-10T12:48:07.399Z,100525.91
2022-10-10T12:51:22.040Z,100527.84
2022-10-10T12:54:30.408Z,100530.22
2022-10-10T12:57:35.674Z,100526.16
2022-10-10T13:00:40.510Z,100518.25
2022-10-10T13:03:46.672Z,100508.84
2022-10-10T13:06:53.405Z,100508.25
2022-10-10T13:10:06.576Z,100514.81
2022-10-10T13:13:18.508Z,100507.25
2022-10-10T13:16:23.398Z,100506.25
2022-10-10T13:19:26.456Z,100501.91
2022-10-10T13:22:31.139Z,100490.88
2022-10-10T13:25:38.591Z,100500.00
2022-10-10T13:28:47.147Z,100494.38
2022-10-10T13:31:50.070Z,100495.50
2022-10-10T13:34:55.220Z,100485.91
2022-10-10T13:38:00.005Z,100487.38
2022-10-10T13:41:05.962Z,100492.72
2022-10-10T13:44:14.834Z,100483.50
2022-10-10T13:47:52.912Z,100484.16
2022-10-10T13:51:05.080Z,100477.84
2022-10-10T13:54:44.557Z,100478.25
2022-10-10T13:57:47.852Z,100471.72
2022-10-10T14:00:56.989Z,100479.09
2022-10-10T14:04:03.987Z,100479.41
2022-10-10T14:07:12.451Z,100483.84
2022-10-10T14:10:21.320Z,100484.31
2022-10-10T14:13:25.411Z,100482.25
2022-10-10T14:16:27.884Z,100490.44
2022-10-10T14:19:31.171Z,100481.91
2022-10-10T14:22:33.655Z,100477.03
2022-10-10T14:25:39.259Z,100482.56
2022-10-10T14:28:42.038Z,100475.94
2022-10-10T14:31:45.413Z,100452.63
2022-10-10T14:34:48.253Z,100446.31
2022-10-10T14:37:50.784Z,100444.88
2022-10-10T14:40:55.360Z,100445.69
2022-10-10T14:43:58.060Z,100452.38
2022-10-10T14:47:00.537Z,100452.38
2022-10-10T14:50:03.084Z,100447.22
2022-10-10T14:53:05.896Z,100453.19
2022-10-10T14:56:12.082Z,100450.00
2022-10-10T14:59:18.341Z,100452.34
2022-10-10T15:02:45.447Z,100442.59
2022-10-10T15:05:48.752Z,100437.63
2022-10-10T15:08:51.227Z,100443.22
2022-10-10T15:11:55.027Z,100445.72
2022-10-10T15:14:57.554Z,100449.56
2022-10-10T15:18:00.140Z,100452.63
2022-10-10T15:21:02.815Z,100459.38
2022-10-10T15:24:06.166Z,100445.75
2022-10-10T15:27:10.179Z,100444.16
2022-10-10T15:30:13.151Z,100448.88
2022-10-10T15:33:15.809Z,100447.72
2022-10-10T15:36:19.345Z,100443.88
2022-10-10T15:39:21.957Z,100447.44
2022-10-10T15:42:25.797Z,100444.03
2022-10-10T15:45:54.411Z,100456.81
2022-10-10T15:48:51.050Z,100444.78
2022-10-10T15:51:53.525Z,100455.44
2022-10-10T15:54:56.004Z,100453.84
2022-10-10T15:57:59.847Z,100448.06
2022-10-10T16:01:11.229Z,100439.22
2022-10-10T16:04:13.803Z,100439.72
2022-10-10T16:07:36.455Z,100443.34
2022-10-10T16:10:39.520Z,100445.38
2022-10-10T16:13:47.630Z,100449.28
2022-10-10T16:16:50.091Z,100451.88
2022-10-10T16:19:52.901Z,100457.72
2022-10-10T16:22:55.414Z,100449.44
2022-10-10T16:26:02.864Z,100453.97
2022-10-10T16:29:08.607Z,100452.22
2022-10-10T16:32:11.081Z,100449.22
2022-10-10T16:35:13.577Z,100448.38
2022-10-10T16:38:16.114Z,100448.97
2022-10-10T16:41:35.603Z,100445.75
2022-10-10T16:44:43.590Z,100452.75
2022-10-10T16:47:46.075Z,100448.88
2022-10-10T16:50:48.564Z,100445.44
2022-10-10T16:53:51.373Z,100448.38
2022-10-10T16:56:53.872Z,100448.75
2022-10-10T16:59:57.659Z,100448.81
2022-10-10T17:03:00.155Z,100442.25
2022-10-10T17:06:04.111Z,100445.22
2022-10-10T17:09:09.960Z,100440.44
2022-10-10T17:12:12.535Z,100452.66
2022-10-10T17:15:16.568Z,100454.75
2022-10-10T17:18:19.492Z,100454.34
2022-10-10T17:21:24.689Z,100458.03
2022-10-10T17:24:27.241Z,100458.63
2022-10-10T17:27:29.725Z,100464.97
2022-10-10T17:30:33.517Z,100455.78
2022-10-10T17:33:37.304Z,100452.91
2022-10-10T17:36:39.781Z,100450.34
2022-10-10T17:39:42.263Z,100449.56
2022-10-10T17:42:44.736Z,100449.56
2022-10-10T17:45:48.519Z,100446.44
2022-10-10T17:48:51.020Z,100449.81
2022-10-10T17:51:53.514Z,100448.94
2022-10-10T17:54:55.980Z,100454.19
2022-10-10T17:57:58.893Z,100448.50
2022-10-10T18:01:04.613Z,100450.72
2022-10-10T18:04:07.658Z,100459.34
2022-10-10T18:07:10.235Z,100449.44
2022-10-10T18:10:12.733Z,100451.00
2022-10-10T18:13:15.268Z,100448.31
2022-10-10T18:16:21.747Z,100458.19
2022-10-10T18:19:24.390Z,100453.56
2022-10-10T18:22:27.020Z,100457.81
2022-10-10T18:25:29.511Z,100464.03
2022-10-10T18:28:32.947Z,100464.63
2022-10-10T18:31:38.206Z,100458.50
2022-10-10T18:34:40.846Z,100462.66
2022-10-10T18:37:43.329Z,100473.69
2022-10-10T18:40:45.841Z,100470.44
2022-10-10T18:43:49.188Z,100471.13
2022-10-10T18:46:52.995Z,100468.75
2022-10-10T18:49:55.467Z,100473.13
2022-10-10T18:52:58.031Z,100471.56
2022-10-10T18:56:01.407Z,100484.59
2022-10-10T18:59:07.267Z,100472.28
2022-10-10T19:02:12.052Z,100481.44
2022-10-10T19:05:14.740Z,100482.31
2022-10-10T19:08:17.220Z,100493.47
2022-10-10T19:11:21.483Z,100493.06
2022-10-10T19:14:24.083Z,100494.19
2022-10-10T19:17:30.294Z,100492.59
2022-10-10T19:20:33.472Z,100492.91
2022-10-10T19:23:36.004Z,100499.97
2022-10-10T19:26:38.483Z,100493.63
2022-10-10T19:29:40.957Z,100490.88
2022-10-10T19:32:44.765Z,100495.72
2022-10-10T19:35:49.869Z,100497.59
2022-10-10T19:38:55.583Z,100499.13
2022-10-10T19:41:58.121Z,100502.38
2022-10-10T19:45:00.589Z,100505.47
2022-10-10T19:48:04.486Z,100515.75
2022-10-10T19:51:09.009Z,100523.53
2022-10-10T19:54:11.558Z,100516.16
2022-10-10T19:57:14.032Z,100519.44
2022-10-10T20:00:16.810Z,100526.91
2022-10-10T20:03:20.672Z,100523.22
2022-10-10T20:06:23.544Z,100528.31
2022-10-10T20:09:27.756Z,100526.91
2022-10-10T20:12:30.466Z,100533.38
2022-10-10T20:15:32.945Z,100522.69
2022-10-10T20:18:38.031Z,100532.69
2022-10-10T20:21:40.536Z,100536.38
2022-10-10T20:24:43.000Z,100536.75
2022-10-10T20:27:45.527Z,100534.34
2022-10-10T20:30:50.386Z,100546.41
2022-10-10T20:33:57.037Z,100548.16
2022-10-10T20:37:00.001Z,100558.13
2022-10-10T20:40:02.554Z,100558.00
2022-10-10T20:43:05.070Z,100544.09
2022-10-10T20:46:09.767Z,100570.69
2022-10-10T20:49:15.726Z,100568.06
2022-10-10T20:52:18.199Z,100569.66
2022-10-10T20:55:20.723Z,100581.69
2022-10-10T20:58:23.233Z,100581.44
2022-10-10T21:01:27.595Z,100597.34
2022-10-10T21:04:31.499Z,100597.34
2022-10-10T21:07:33.970Z,100607.16
2022-10-10T21:10:39.109Z,100616.66
2022-10-10T21:13:44.276Z,100608.91
2022-10-10T21:16:47.686Z,100612.47
2022-10-10T21:19:51.488Z,100621.56
2022-10-10T21:22:55.663Z,100622.56
2022-10-10T21:25:58.153Z,100629.47
2022-10-10T21:29:01.670Z,100633.31
2022-10-10T21:32:04.224Z,100625.94
2022-10-10T21:35:09.664Z,100643.91
2022-10-10T21:38:12.183Z,100649.56
2022-10-10T21:41:19.096Z,100652.50
2022-10-10T21:44:21.632Z,100652.97
2022-10-10T21:47:24.218Z,100647.56
2022-10-10T21:50:29.161Z,100661.72
2022-10-10T21:53:32.171Z,100669.06
2022-10-10T21:56:34.738Z,100657.47
2022-10-10T21:59:37.227Z,100667.97
2022-10-10T22:02:40.047Z,100671.19
2022-10-10T22:05:44.801Z,100667.13
2022-10-10T22:08:48.602Z,100667.88
2022-10-10T22:11:51.163Z,100668.47
2022-10-10T22:14:53.646Z,100660.03
2022-10-10T22:17:57.004Z,100663.69
2022-10-10T22:21:03.223Z,100673.03
2022-10-10T22:24:08.423Z,100677.44
2022-10-10T22:27:10.980Z,100685.75
2022-10-10T22:30:14.657Z,100689.16
2022-10-10T22:33:17.165Z,100698.78
2022-10-10T22:36:21.004Z,100708.03
2022-10-10T22:39:23.564Z,100708.09
2022-10-10T22:42:26.053Z,100702.28
2022-10-10T22:45:29.255Z,100711.50
2022-10-10T22:48:31.852Z,100704.78
2022-10-10T22:51:35.720Z,100719.09
2022-10-10T22:54:38.210Z,100723.78
2022-10-10T22:57:40.697Z,100732.31
2022-10-10T23:00:43.220Z,100737.03
2022-10-10T23:03:47.093Z,100744.78
2022-10-10T23:06:51.317Z,100744.56
2022-10-10T23:09:53.866Z,100754.50
2022-10-10T23:12:56.351Z,100757.41
2022-10-10T23:15:59.167Z,100767.13
2022-10-10T23:19:01.708Z,100776.00
2022-10-10T23:22:05.524Z,100779.03
2022-10-10T23:25:08.445Z,100783.13
2022-10-10T23:28:11.918Z,100797.59
2022-10-10T23:31:14.946Z,100791.13
2022-10-10T23:34:17.458Z,100799.09
2022-10-10T23:37:21.266Z,100811.59
2022-10-10T23:40:24.190Z,100810.09
2022-10-10T23:43:26.800Z,100817.28
2022-10-10T23:46:29.313Z,100824.28
2022-10-10T23:49:31.843Z,100828.28
2022-10-10T23:52:35.881Z,100828.34
2022-10-10T23:55:38.438Z,100833.53
2022-10-10T23:58:40.909Z,100848.00
